Time,TemperatureF,DewpointF,PressureIn,WindDirection,WindDirectionDegrees,WindSpeedMPH,WindSpeedGustMPH,Humidity,HourlyPrecipIn,Conditions,Clouds,dailyrainin,SoftwareType,DateUTC
2013-02-24 00:00:00,38.1,34.0,27.82,SSE,158,0.0,0.0,85,0.00,,---,0.00,VWS V14.01,2013-02-24 05:00:00,
2013-02-24 00:01:00,38.1,34.0,27.82,SSE,158,0.0,0.0,85,0.00,,---,0.00,VWS V14.01,2013-02-24 05:01:00,
2013-02-24 00:06:00,37.9,33.8,27.85,SSE,158,0.0,0.0,85,0.00,,---,0.00,VWS V14.01,2013-02-24 05:06:00,
2013-02-24 00:11:00,37.6,33.5,27.85,SSE,158,0.0,0.0,85,0.00,,---,0.00,VWS V14.01,2013-02-24 05:11:00,
2013-02-24 00:16:00,37.4,33.3,27.85,SSE,158,0.0,0.0,85,0.00,,---,0.00,VWS V14.01,2013-02-24 05:16:00,
2013-02-24 00:21:00,37.4,33.3,27.82,SSE,158,0.0,0.0,85,0.00,,---,0.00,VWS V14.01,2013-02-24 05:21:00,
2013-02-24 00:26:00,37.2,33.1,27.82,SSE,158,0.0,0.0,85,0.00,,---,0.00,VWS V14.01,2013-02-24 05:26:00,
2013-02-24 00:31:00,37.2,33.1,27.82,SSE,158,0.0,0.0,85,0.00,,---,0.00,VWS V14.01,2013-02-24 05:31:00,
2013-02-24 00:36:00,37.0,33.0,27.82,SSE,158,0.0,0.0,85,0.00,,---,0.00,VWS V14.01,2013-02-24 05:36:00,
2013-02-24 00:41:00,37.0,32.7,27.82,SSE,158,0.0,0.0,84,0.00,,---,0.00,VWS V14.01,2013-02-24 05:41:00,
2013-02-24 00:46:00,37.0,32.7,27.82,SSE,158,0.0,0.0,84,0.00,,---,0.00,VWS V14.01,2013-02-24 05:46:00,
2013-02-24 00:51:00,36.9,32.2,27.82,SSE,158,0.0,0.0,83,0.00,,---,0.00,VWS V14.01,2013-02-24 05:51:00,
2013-02-24 00:56:00,36.7,32.0,27.82,SSE,158,0.0,0.0,83,0.00,,---,0.00,VWS V14.01,2013-02-24 05:56:00,
2013-02-24 01:01:00,36.5,31.8,27.82,SSE,158,0.0,0.0,83,0.00,,---,0.00,VWS V14.01,2013-02-24 06:01:00,
2013-02-24 01:06:00,36.7,32.0,27.82,SSE,158,0.0,0.0,83,0.00,,---,0.00,VWS V14.01,2013-02-24 06:06:00,
2013-02-24 01:12:00,36.7,31.7,27.82,SSE,158,0.0,0.0,82,0.00,,---,0.00,VWS V14.01,2013-02-24 06:12:00,
2013-02-24 01:17:00,36.3,31.4,27.82,SSE,158,0.0,0.0,82,0.00,,---,0.00,VWS V14.01,2013-02-24 06:17:00,
2013-02-24 01:22:00,36.3,31.4,27.82,SSE,158,0.0,0.0,82,0.00,,---,0.00,VWS V14.01,2013-02-24 06:22:00,
2013-02-24 01:27:00,36.3,31.4,27.82,SSE,158,0.0,0.0,82,0.00,,---,0.00,VWS V14.01,2013-02-24 06:27:00,
2013-02-24 01:32:00,36.3,31.4,27.82,SSE,158,0.0,0.0,82,0.00,,---,0.00,VWS V14.01,2013-02-24 06:32:00,
2013-02-24 01:37:00,36.3,31.4,27.82,SSE,158,0.0,0.0,82,0.00,,---,0.00,VWS V14.01,2013-02-24 06:37:00,
2013-02-24 01:42:00,36.3,31.4,27.82,SSE,158,0.0,0.0,82,0.00,,---,0.00,VWS V14.01,2013-02-24 06:42:00,
2013-02-24 01:47:00,36.3,31.4,27.82,SSE,158,0.0,0.0,82,0.00,,---,0.00,VWS V14.01,2013-02-24 06:47:00,
2013-02-24 01:52:00,34.9,30.2,27.82,SSE,158,0.0,0.0,83,0.00,,---,0.00,VWS V14.01,2013-02-24 06:52:00,
2013-02-24 01:58:00,34.9,30.2,27.82,SSE,158,0.0,0.0,83,0.00,,---,0.00,VWS V14.01,2013-02-24 06:58:00,
2013-02-24 02:03:00,34.9,30.2,27.82,SSE,158,0.0,0.0,83,0.00,,---,0.00,VWS V14.01,2013-02-24 07:03:00,
2013-02-24 02:08:00,35.1,30.4,27.82,SSE,158,0.0,0.0,83,0.00,,---,0.00,VWS V14.01,2013-02-24 07:08:00,
2013-02-24 02:13:00,35.2,30.6,27.82,SSE,158,0.0,0.0,83,0.00,,---,0.00,VWS V14.01,2013-02-24 07:13:00,
2013-02-24 02:18:00,35.4,30.5,27.85,SSE,158,0.0,0.0,82,0.00,,---,0.00,VWS V14.01,2013-02-24 07:18:00,
2013-02-24 02:23:00,35.4,30.5,27.85,SSE,158,0.0,0.0,82,0.00,,---,0.00,VWS V14.01,2013-02-24 07:23:00,
2013-02-24 02:28:00,35.4,30.5,27.85,SSE,158,0.0,0.0,82,0.00,,---,0.00,VWS V14.01,2013-02-24 07:28:00,
2013-02-24 02:33:00,35.6,29.7,27.85,SSE,158,0.0,0.0,79,0.00,,---,0.00,VWS V14.01,2013-02-24 07:33:00,
2013-02-24 02:38:00,35.6,29.7,27.85,SSE,158,0.0,0.0,79,0.00,,---,0.00,VWS V14.01,2013-02-24 07:38:00,
2013-02-24 02:43:00,35.6,29.7,27.85,SSE,158,0.0,0.0,79,0.00,,---,0.00,VWS V14.01,2013-02-24 07:43:00,
2013-02-24 02:48:00,35.6,29.7,27.82,SSE,158,0.0,0.0,79,0.00,,---,0.00,VWS V14.01,2013-02-24 07:48:00,
2013-02-24 02:53:00,35.6,29.7,27.82,SSE,158,0.0,0.0,79,0.00,,---,0.00,VWS V14.01,2013-02-24 07:53:00,
2013-02-24 02:58:00,35.6,29.7,27.82,SSE,158,0.0,0.0,79,0.00,,---,0.00,VWS V14.01,2013-02-24 07:58:00,
2013-02-24 03:03:00,35.2,28.8,27.82,SSE,158,0.0,0.0,77,0.00,,---,0.00,VWS V14.01,2013-02-24 08:03:00,
2013-02-24 03:08:00,35.2,28.5,27.82,SSE,158,0.0,0.0,76,0.00,,---,0.00,VWS V14.01,2013-02-24 08:08:00,
2013-02-24 03:13:00,34.9,28.1,27.82,SSE,158,0.0,0.0,76,0.00,,---,0.00,VWS V14.01,2013-02-24 08:13:00,
2013-02-24 03:18:00,34.7,27.9,27.82,SSE,158,0.0,0.0,76,0.00,,---,0.00,VWS V14.01,2013-02-24 08:18:00,
2013-02-24 03:23:00,34.7,27.9,27.82,SSE,158,0.0,0.0,76,0.00,,---,0.00,VWS V14.01,2013-02-24 08:23:00,
2013-02-24 03:28:00,34.5,27.8,27.82,SSE,158,0.0,0.0,76,0.00,,---,0.00,VWS V14.01,2013-02-24 08:28:00,
2013-02-24 03:34:00,34.5,27.8,27.82,SSE,158,0.0,0.0,76,0.00,,---,0.00,VWS V14.01,2013-02-24 08:34:00,
2013-02-24 03:39:00,34.5,27.8,27.82,SSE,158,0.0,0.0,76,0.00,,---,0.00,VWS V14.01,2013-02-24 08:39:00,
2013-02-24 03:44:00,34.5,27.8,27.82,SSE,158,0.0,0.0,76,0.00,,---,0.00,VWS V14.01,2013-02-24 08:44:00,
2013-02-24 03:49:00,34.5,27.8,27.85,SSE,158,0.0,0.0,76,0.00,,---,0.00,VWS V14.01,2013-02-24 08:49:00,
2013-02-24 03:54:00,34.5,27.8,27.85,SSE,158,0.0,0.0,76,0.00,,---,0.00,VWS V14.01,2013-02-24 08:54:00,
2013-02-24 03:59:00,34.3,26.9,27.85,SSE,158,0.0,0.0,74,0.00,,---,0.00,VWS V14.01,2013-02-24 08:59:00,
2013-02-24 04:04:00,34.3,26.9,27.82,SSE,158,0.0,0.0,74,0.00,,---,0.00,VWS V14.01,2013-02-24 09:04:00,
2013-02-24 04:09:00,34.3,26.9,27.82,SSE,158,0.0,0.0,74,0.00,,---,0.00,VWS V14.01,2013-02-24 09:09:00,
2013-02-24 04:14:00,34.3,26.9,27.82,SSE,158,0.0,0.0,74,0.00,,---,0.00,VWS V14.01,2013-02-24 09:14:00,
2013-02-24 04:19:00,34.3,26.9,27.85,SSE,158,0.0,0.0,74,0.00,,---,0.00,VWS V14.01,2013-02-24 09:19:00,
2013-02-24 04:24:00,34.3,26.9,27.85,SSE,158,0.0,0.0,74,0.00,,---,0.00,VWS V14.01,2013-02-24 09:24:00,
2013-02-24 04:29:00,34.3,26.9,27.85,SSE,158,0.0,0.0,74,0.00,,---,0.00,VWS V14.01,2013-02-24 09:29:00,
2013-02-24 04:34:00,34.3,26.9,27.82,SSE,158,0.0,0.0,74,0.00,,---,0.00,VWS V14.01,2013-02-24 09:34:00,
2013-02-24 04:39:00,33.8,26.4,27.82,SSE,158,0.0,0.0,74,0.00,,---,0.00,VWS V14.01,2013-02-24 09:39:00,
2013-02-24 04:44:00,33.4,26.1,27.82,SSE,158,0.0,0.0,74,0.00,,---,0.00,VWS V14.01,2013-02-24 09:44:00,
2013-02-24 04:49:00,33.4,26.4,27.82,SSE,158,0.0,0.0,75,0.00,,---,0.00,VWS V14.01,2013-02-24 09:49:00,
2013-02-24 04:54:00,33.4,26.4,27.82,SSE,158,0.0,0.0,75,0.00,,---,0.00,VWS V14.01,2013-02-24 09:54:00,
2013-02-24 04:59:00,32.9,25.9,27.82,SSE,158,0.0,0.0,75,0.00,,---,0.00,VWS V14.01,2013-02-24 09:59:00,
2013-02-24 05:04:00,32.9,25.9,27.82,SSE,158,0.0,0.0,75,0.00,,---,0.00,VWS V14.01,2013-02-24 10:04:00,
2013-02-24 05:09:00,32.9,25.9,27.82,SSE,158,0.0,0.0,75,0.00,,---,0.00,VWS V14.01,2013-02-24 10:09:00,
2013-02-24 05:14:00,32.9,25.9,27.82,SSE,158,0.0,0.0,75,0.00,,---,0.00,VWS V14.01,2013-02-24 10:14:00,
2013-02-24 05:19:00,32.9,26.2,27.85,SSE,158,0.0,0.0,76,0.00,,---,0.00,VWS V14.01,2013-02-24 10:19:00,
2013-02-24 05:24:00,32.9,26.2,27.85,SSE,158,0.0,0.0,76,0.00,,---,0.00,VWS V14.01,2013-02-24 10:24:00,
2013-02-24 05:29:00,32.9,26.2,27.85,SSE,158,0.0,0.0,76,0.00,,---,0.00,VWS V14.01,2013-02-24 10:29:00,
2013-02-24 05:35:00,32.5,26.1,27.85,SSE,158,0.0,0.0,77,0.00,,---,0.00,VWS V14.01,2013-02-24 10:35:00,
2013-02-24 05:40:00,32.5,26.1,27.85,SSE,158,0.0,0.0,77,0.00,,---,0.00,VWS V14.01,2013-02-24 10:40:00,
2013-02-24 05:45:00,32.5,26.1,27.85,SSE,158,0.0,0.0,77,0.00,,---,0.00,VWS V14.01,2013-02-24 10:45:00,
2013-02-24 05:50:00,32.7,26.3,27.85,SSE,158,0.0,0.0,77,0.00,,---,0.00,VWS V14.01,2013-02-24 10:50:00,
2013-02-24 05:55:00,32.7,26.0,27.85,SSE,158,0.0,0.0,76,0.00,,---,0.00,VWS V14.01,2013-02-24 10:55:00,
2013-02-24 06:00:00,32.7,26.0,27.85,SSE,158,0.0,0.0,76,0.00,,---,0.00,VWS V14.01,2013-02-24 11:00:00,
2013-02-24 06:05:00,33.1,26.0,27.85,SSE,158,0.0,0.0,75,0.00,,---,0.00,VWS V14.01,2013-02-24 11:05:00,
2013-02-24 06:10:00,33.1,25.7,27.85,SSE,158,0.0,0.0,74,0.00,,---,0.00,VWS V14.01,2013-02-24 11:10:00,
2013-02-24 06:15:00,33.1,25.7,27.85,SSE,158,0.0,0.0,74,0.00,,---,0.00,VWS V14.01,2013-02-24 11:15:00,
2013-02-24 06:20:00,32.9,25.5,27.85,SSE,158,0.0,0.0,74,0.00,,---,0.00,VWS V14.01,2013-02-24 11:20:00,
2013-02-24 06:25:00,32.9,25.5,27.85,SSE,158,0.0,0.0,74,0.00,,---,0.00,VWS V14.01,2013-02-24 11:25:00,
2013-02-24 06:30:00,32.9,25.5,27.85,SSE,158,0.0,0.0,74,0.00,,---,0.00,VWS V14.01,2013-02-24 11:30:00,
2013-02-24 06:36:00,32.9,25.5,27.85,SSE,158,0.0,0.0,74,0.00,,---,0.00,VWS V14.01,2013-02-24 11:36:00,
2013-02-24 06:41:00,32.9,25.5,27.85,SSE,158,0.0,0.0,74,0.00,,---,0.00,VWS V14.01,2013-02-24 11:41:00,
2013-02-24 06:46:00,32.9,25.5,27.85,SSE,158,0.0,0.0,74,0.00,,---,0.00,VWS V14.01,2013-02-24 11:46:00,
2013-02-24 06:51:00,32.7,25.0,27.85,SSE,158,0.0,0.0,73,0.00,,---,0.00,VWS V14.01,2013-02-24 11:51:00,
2013-02-24 06:56:00,32.7,25.0,27.85,SSE,158,0.0,0.0,73,0.00,,---,0.00,VWS V14.01,2013-02-24 11:56:00,
2013-02-24 07:01:00,32.7,25.0,27.85,SSE,158,0.0,0.0,73,0.00,,---,0.00,VWS V14.01,2013-02-24 12:01:00,
2013-02-24 07:06:00,32.5,24.9,27.85,SSE,158,0.0,0.0,73,0.00,,---,0.00,VWS V14.01,2013-02-24 12:06:00,
2013-02-24 07:11:00,32.5,24.9,27.85,SSE,158,0.0,0.0,73,0.00,,---,0.00,VWS V14.01,2013-02-24 12:11:00,
2013-02-24 07:16:00,32.5,24.9,27.85,SSE,158,0.0,0.0,73,0.00,,---,0.00,VWS V14.01,2013-02-24 12:16:00,
2013-02-24 07:21:00,32.5,24.9,27.88,SSE,158,0.0,0.0,73,0.00,,---,0.00,VWS V14.01,2013-02-24 12:21:00,
2013-02-24 07:26:00,32.2,24.5,27.88,SSE,158,0.0,0.0,73,0.00,,---,0.00,VWS V14.01,2013-02-24 12:26:00,
2013-02-24 07:31:00,32.2,24.5,27.88,SSE,158,0.0,0.0,73,0.00,,---,0.00,VWS V14.01,2013-02-24 12:31:00,
2013-02-24 07:36:00,32.0,24.3,27.88,SSE,158,0.0,0.0,73,0.00,,---,0.00,VWS V14.01,2013-02-24 12:36:00,
2013-02-24 07:41:00,32.2,24.2,27.88,SSE,158,0.0,0.0,72,0.00,,---,0.00,VWS V14.01,2013-02-24 12:41:00,
2013-02-24 07:47:00,32.2,24.2,27.88,SSE,158,0.0,0.0,72,0.00,,---,0.00,VWS V14.01,2013-02-24 12:47:00,
2013-02-24 07:52:00,32.2,24.5,27.88,SSE,158,0.0,0.0,73,0.00,,---,0.00,VWS V14.01,2013-02-24 12:52:00,
2013-02-24 07:57:00,32.2,24.5,27.88,SSE,158,0.0,0.0,73,0.00,,---,0.00,VWS V14.01,2013-02-24 12:57:00,
2013-02-24 08:02:00,32.2,24.2,27.88,SSE,158,0.0,0.0,72,0.00,,---,0.00,VWS V14.01,2013-02-24 13:02:00,
2013-02-24 08:07:00,32.4,24.4,27.88,SSE,158,0.0,0.0,72,0.00,,---,0.00,VWS V14.01,2013-02-24 13:07:00,
2013-02-24 08:12:00,32.5,24.5,27.88,SSE,158,0.0,0.0,72,0.00,,---,0.00,VWS V14.01,2013-02-24 13:12:00,
2013-02-24 08:17:00,32.7,24.7,27.88,SSE,158,0.0,0.0,72,0.00,,---,0.00,VWS V14.01,2013-02-24 13:17:00,
2013-02-24 08:22:00,33.1,25.0,27.88,SSE,158,0.0,0.0,72,0.00,,---,0.00,VWS V14.01,2013-02-24 13:22:00,
2013-02-24 08:27:00,33.3,24.9,27.88,SSE,158,0.0,0.0,71,0.00,,---,0.00,VWS V14.01,2013-02-24 13:27:00,
2013-02-24 08:32:00,33.4,25.1,27.88,SSE,158,0.0,0.0,71,0.00,,---,0.00,VWS V14.01,2013-02-24 13:32:00,
2013-02-24 08:37:00,34.0,25.2,27.88,SSE,158,0.0,0.0,70,0.00,,---,0.00,VWS V14.01,2013-02-24 13:37:00,
2013-02-24 08:42:00,34.0,25.2,27.88,SSE,158,0.0,0.0,70,0.00,,---,0.00,VWS V14.01,2013-02-24 13:42:00,
2013-02-24 08:47:00,34.0,25.2,27.90,SSE,158,0.0,0.0,70,0.00,,---,0.00,VWS V14.01,2013-02-24 13:47:00,
2013-02-24 08:52:00,34.9,25.4,27.90,SSE,158,0.0,0.0,68,0.00,,---,0.00,VWS V14.01,2013-02-24 13:52:00,
2013-02-24 08:57:00,34.9,25.4,27.90,SSE,158,0.0,0.0,68,0.00,,---,0.00,VWS V14.01,2013-02-24 13:57:00,
2013-02-24 09:03:00,34.9,25.4,27.90,SSE,158,0.0,0.0,68,0.00,,---,0.00,VWS V14.01,2013-02-24 14:03:00,
2013-02-24 09:08:00,34.9,25.4,27.90,SSE,158,0.0,0.0,68,0.00,,---,0.00,VWS V14.01,2013-02-24 14:08:00,
2013-02-24 09:13:00,36.3,25.0,27.90,SSE,158,0.0,0.0,63,0.00,,---,0.00,VWS V14.01,2013-02-24 14:13:00,
2013-02-24 09:18:00,36.3,25.0,27.90,SSE,158,0.0,0.0,63,0.00,,---,0.00,VWS V14.01,2013-02-24 14:18:00,
2013-02-24 09:23:00,37.8,25.1,27.90,SSE,158,0.0,0.0,60,0.00,,---,0.00,VWS V14.01,2013-02-24 14:23:00,
2013-02-24 09:28:00,37.8,25.1,27.90,SSE,158,0.0,0.0,60,0.00,,---,0.00,VWS V14.01,2013-02-24 14:28:00,
2013-02-24 09:33:00,37.8,25.1,27.90,SSE,158,0.0,0.0,60,0.00,,---,0.00,VWS V14.01,2013-02-24 14:33:00,
2013-02-24 09:38:00,37.8,25.1,27.90,SSE,158,0.0,0.0,60,0.00,,---,0.00,VWS V14.01,2013-02-24 14:38:00,
2013-02-24 09:43:00,37.8,25.1,27.90,SSE,158,0.0,0.0,60,0.00,,---,0.00,VWS V14.01,2013-02-24 14:43:00,
2013-02-24 09:48:00,43.0,27.5,27.90,SSE,158,0.0,0.0,54,0.00,,---,0.00,VWS V14.01,2013-02-24 14:48:00,
2013-02-24 09:53:00,43.0,27.5,27.90,SSE,158,0.0,0.0,54,0.00,,---,0.00,VWS V14.01,2013-02-24 14:53:00,
2013-02-24 09:58:00,43.0,27.5,27.90,SSE,158,0.0,0.0,54,0.00,,---,0.00,VWS V14.01,2013-02-24 14:58:00,
2013-02-24 10:03:00,43.0,27.5,27.90,SSE,158,0.0,0.0,54,0.00,,---,0.00,VWS V14.01,2013-02-24 15:03:00,
2013-02-24 10:08:00,43.0,27.5,27.90,SSE,158,0.0,0.0,54,0.00,,---,0.00,VWS V14.01,2013-02-24 15:08:00,
2013-02-24 10:13:00,43.0,27.5,27.90,SSE,158,0.0,0.0,54,0.00,,---,0.00,VWS V14.01,2013-02-24 15:13:00,
2013-02-24 10:18:00,43.0,27.5,27.90,SSE,158,0.0,0.0,54,0.00,,---,0.00,VWS V14.01,2013-02-24 15:18:00,
2013-02-24 10:23:00,43.0,27.5,27.90,SSE,158,0.0,0.0,54,0.00,,---,0.00,VWS V14.01,2013-02-24 15:23:00,
2013-02-24 10:28:00,43.0,27.5,27.90,SSE,158,0.0,0.0,54,0.00,,---,0.00,VWS V14.01,2013-02-24 15:28:00,
2013-02-24 10:33:00,48.9,29.6,27.90,SSE,158,0.0,0.0,47,0.00,,---,0.00,VWS V14.01,2013-02-24 15:33:00,
2013-02-24 10:38:00,49.6,30.2,27.90,SSE,158,0.0,0.0,47,0.00,,---,0.00,VWS V14.01,2013-02-24 15:38:00,
2013-02-24 10:43:00,49.6,30.2,27.90,SSE,158,0.0,0.0,47,0.00,,---,0.00,VWS V14.01,2013-02-24 15:43:00,
2013-02-24 10:48:00,50.0,30.0,27.93,SSE,158,0.0,0.0,46,0.00,,---,0.00,VWS V14.01,2013-02-24 15:48:00,
2013-02-24 10:54:00,50.5,30.0,27.93,SSE,158,0.0,0.0,45,0.00,,---,0.00,VWS V14.01,2013-02-24 15:54:00,
2013-02-24 10:59:00,50.7,30.2,27.93,SSE,158,0.0,0.0,45,0.00,,---,0.00,VWS V14.01,2013-02-24 15:59:00,
2013-02-24 11:04:00,51.1,30.5,27.90,SSE,158,0.0,0.0,45,0.00,,---,0.00,VWS V14.01,2013-02-24 16:04:00,
2013-02-24 11:09:00,52.3,30.0,27.90,SSE,158,0.0,0.0,42,0.00,,---,0.00,VWS V14.01,2013-02-24 16:09:00,
2013-02-24 11:14:00,53.4,30.9,27.90,SSE,158,0.0,0.0,42,0.00,,---,0.00,VWS V14.01,2013-02-24 16:14:00,
2013-02-24 11:19:00,53.6,30.5,27.93,SSE,158,0.0,0.0,41,0.00,,---,0.00,VWS V14.01,2013-02-24 16:19:00,
2013-02-24 11:24:00,54.1,30.4,27.93,SSE,158,0.0,0.0,40,0.00,,---,0.00,VWS V14.01,2013-02-24 16:24:00,
2013-02-24 11:29:00,54.1,29.8,27.93,SSE,158,0.0,0.0,39,0.00,,---,0.00,VWS V14.01,2013-02-24 16:29:00,
2013-02-24 11:34:00,54.0,29.0,27.90,SSE,158,0.0,0.0,38,0.00,,---,0.00,VWS V14.01,2013-02-24 16:34:00,
2013-02-24 11:39:00,54.7,29.6,27.90,SSE,158,0.0,0.0,38,0.00,,---,0.00,VWS V14.01,2013-02-24 16:39:00,
2013-02-24 11:44:00,55.6,29.7,27.90,SSE,158,0.0,0.0,37,0.00,,---,0.00,VWS V14.01,2013-02-24 16:44:00,
2013-02-24 11:49:00,55.4,29.6,27.90,SSE,158,0.0,0.0,37,0.00,,---,0.00,VWS V14.01,2013-02-24 16:49:00,
2013-02-24 11:54:00,55.8,29.2,27.90,SSE,158,0.0,0.0,36,0.00,,---,0.00,VWS V14.01,2013-02-24 16:54:00,
2013-02-24 11:59:00,56.5,30.5,27.90,SSE,158,0.0,0.0,37,0.00,,---,0.00,VWS V14.01,2013-02-24 16:59:00,
2013-02-24 12:04:00,56.3,29.7,27.93,SSE,158,0.0,0.0,36,0.00,,---,0.00,VWS V14.01,2013-02-24 17:04:00,
2013-02-24 12:09:00,56.3,29.7,27.93,SSE,158,0.0,0.0,36,0.00,,---,0.00,VWS V14.01,2013-02-24 17:09:00,
2013-02-24 12:14:00,55.8,28.5,27.93,SSE,158,0.0,0.0,35,0.00,,---,0.00,VWS V14.01,2013-02-24 17:14:00,
2013-02-24 12:20:00,56.5,29.9,27.90,SSE,158,0.0,0.0,36,0.00,,---,0.00,VWS V14.01,2013-02-24 17:20:00,
2013-02-24 12:25:00,56.8,30.2,27.90,SSE,158,0.0,0.0,36,0.00,,---,0.00,VWS V14.01,2013-02-24 17:25:00,
2013-02-24 12:30:00,57.6,30.1,27.90,SSE,158,0.0,0.0,35,0.00,,---,0.00,VWS V14.01,2013-02-24 17:30:00,
2013-02-24 12:35:00,57.9,30.5,27.90,SSE,158,0.0,0.0,35,0.00,,---,0.00,VWS V14.01,2013-02-24 17:35:00,
2013-02-24 12:40:00,57.4,30.0,27.90,SSE,158,0.0,0.0,35,0.00,,---,0.00,VWS V14.01,2013-02-24 17:40:00,
2013-02-24 12:45:00,57.7,30.3,27.90,SSE,158,0.0,0.0,35,0.00,,---,0.00,VWS V14.01,2013-02-24 17:45:00,
2013-02-24 12:50:00,58.1,30.6,27.93,SSE,158,0.0,0.0,35,0.00,,---,0.00,VWS V14.01,2013-02-24 17:50:00,
2013-02-24 12:55:00,58.5,30.9,27.93,SSE,158,0.0,0.0,35,0.00,,---,0.00,VWS V14.01,2013-02-24 17:55:00,
2013-02-24 13:00:00,58.8,31.2,27.93,SSE,158,0.0,0.0,35,0.00,,---,0.00,VWS V14.01,2013-02-24 18:00:00,
2013-02-24 13:05:00,58.5,29.5,27.93,SSE,158,0.0,0.0,33,0.00,,---,0.00,VWS V14.01,2013-02-24 18:05:00,
2013-02-24 13:10:00,59.2,30.1,27.93,SSE,158,0.0,0.0,33,0.00,,---,0.00,VWS V14.01,2013-02-24 18:10:00,
2013-02-24 13:15:00,59.0,29.2,27.93,SSE,158,0.0,0.0,32,0.00,,---,0.00,VWS V14.01,2013-02-24 18:15:00,
2013-02-24 13:20:00,59.4,29.5,27.90,SSE,158,0.0,0.0,32,0.00,,---,0.00,VWS V14.01,2013-02-24 18:20:00,
2013-02-24 13:26:00,59.0,29.2,27.90,SSE,158,0.0,0.0,32,0.00,,---,0.00,VWS V14.01,2013-02-24 18:26:00,
2013-02-24 13:31:00,59.7,32.0,27.90,SSE,158,0.0,0.0,35,0.00,,---,0.00,VWS V14.01,2013-02-24 18:31:00,
2013-02-24 13:36:00,59.7,32.0,27.90,SSE,158,0.0,0.0,35,0.00,,---,0.00,VWS V14.01,2013-02-24 18:36:00,
2013-02-24 13:41:00,59.0,31.4,27.90,SSE,158,0.0,0.0,35,0.00,,---,0.00,VWS V14.01,2013-02-24 18:41:00,
2013-02-24 13:46:00,59.7,32.0,27.90,SSE,158,0.0,0.0,35,0.00,,---,0.00,VWS V14.01,2013-02-24 18:46:00,
2013-02-24 13:51:00,60.1,32.4,27.90,SSE,158,0.0,0.0,35,0.00,,---,0.00,VWS V14.01,2013-02-24 18:51:00,
2013-02-24 13:56:00,60.1,32.4,27.90,SSE,158,0.0,0.0,35,0.00,,---,0.00,VWS V14.01,2013-02-24 18:56:00,
2013-02-24 14:01:00,60.8,30.0,27.90,SSE,158,0.0,0.0,31,0.00,,---,0.00,VWS V14.01,2013-02-24 19:01:00,
2013-02-24 14:06:00,61.3,29.7,27.90,SSE,158,0.0,0.0,30,0.00,,---,0.00,VWS V14.01,2013-02-24 19:06:00,
2013-02-24 14:11:00,61.7,33.1,27.90,SSE,158,0.0,0.0,34,0.00,,---,0.00,VWS V14.01,2013-02-24 19:11:00,
2013-02-24 14:16:00,61.3,32.8,27.90,SSE,158,0.0,0.0,34,0.00,,---,0.00,VWS V14.01,2013-02-24 19:16:00,
2013-02-24 14:21:00,61.5,32.9,27.90,SSE,158,0.0,0.0,34,0.00,,---,0.00,VWS V14.01,2013-02-24 19:21:00,
2013-02-24 14:26:00,61.3,28.8,27.90,SSE,158,0.0,0.0,29,0.00,,---,0.00,VWS V14.01,2013-02-24 19:26:00,
2013-02-24 14:31:00,61.0,26.8,27.90,SSE,158,0.0,0.0,27,0.00,,---,0.00,VWS V14.01,2013-02-24 19:31:00,
2013-02-24 14:36:00,60.8,26.6,27.90,SSE,158,0.0,0.0,27,0.00,,---,0.00,VWS V14.01,2013-02-24 19:36:00,
2013-02-24 14:41:00,61.0,26.8,27.90,SSE,158,0.0,0.0,27,0.00,,---,0.00,VWS V14.01,2013-02-24 19:41:00,
2013-02-24 14:46:00,61.3,28.8,27.90,SSE,158,0.0,0.0,29,0.00,,---,0.00,VWS V14.01,2013-02-24 19:46:00,
2013-02-24 14:51:00,61.2,26.9,27.90,SSE,158,0.0,0.0,27,0.00,,---,0.00,VWS V14.01,2013-02-24 19:51:00,
2013-02-24 14:56:00,60.8,25.7,27.90,SSE,158,0.0,0.0,26,0.00,,---,0.00,VWS V14.01,2013-02-24 19:56:00,
2013-02-24 15:01:00,60.6,26.5,27.90,SSE,158,0.0,0.0,27,0.00,,---,0.00,VWS V14.01,2013-02-24 20:01:00,
2013-02-24 15:06:00,60.4,26.3,27.90,SSE,158,0.0,0.0,27,0.00,,---,0.00,VWS V14.01,2013-02-24 20:06:00,
2013-02-24 15:12:00,60.4,26.3,27.90,SSE,158,0.0,0.0,27,0.00,,---,0.00,VWS V14.01,2013-02-24 20:12:00,
2013-02-24 15:17:00,60.4,26.3,27.90,SSE,158,0.0,0.0,27,0.00,,---,0.00,VWS V14.01,2013-02-24 20:17:00,
2013-02-24 15:22:00,60.3,29.5,27.90,SSE,158,0.0,0.0,31,0.00,,---,0.00,VWS V14.01,2013-02-24 20:22:00,
2013-02-24 15:27:00,60.3,29.5,27.90,SSE,158,0.0,0.0,31,0.00,,---,0.00,VWS V14.01,2013-02-24 20:27:00,
2013-02-24 15:32:00,60.3,29.5,27.90,SSE,158,0.0,0.0,31,0.00,,---,0.00,VWS V14.01,2013-02-24 20:32:00,
2013-02-24 15:37:00,60.3,29.5,27.90,SSE,158,0.0,0.0,31,0.00,,---,0.00,VWS V14.01,2013-02-24 20:37:00,
2013-02-24 15:42:00,60.3,29.5,27.90,SSE,158,0.0,0.0,31,0.00,,---,0.00,VWS V14.01,2013-02-24 20:42:00,
2013-02-24 15:47:00,60.3,29.5,27.90,SSE,158,0.0,0.0,31,0.00,,---,0.00,VWS V14.01,2013-02-24 20:47:00,
2013-02-24 15:52:00,60.3,29.5,27.90,SSE,158,0.0,0.0,31,0.00,,---,0.00,VWS V14.01,2013-02-24 20:52:00,
2013-02-24 15:57:00,60.3,29.5,27.90,SSE,158,0.0,0.0,31,0.00,,---,0.00,VWS V14.01,2013-02-24 20:57:00,
2013-02-24 16:02:00,60.3,29.5,27.90,SSE,158,0.0,0.0,31,0.00,,---,0.00,VWS V14.01,2013-02-24 21:02:00,
2013-02-24 16:07:00,60.3,29.5,27.90,SSE,158,0.0,0.0,31,0.00,,---,0.00,VWS V14.01,2013-02-24 21:07:00,
2013-02-24 16:12:00,60.3,29.5,27.90,SSE,158,0.0,0.0,31,0.00,,---,0.00,VWS V14.01,2013-02-24 21:12:00,
2013-02-24 16:17:00,60.3,29.5,27.90,SSE,158,0.0,0.0,31,0.00,,---,0.00,VWS V14.01,2013-02-24 21:17:00,
2013-02-24 16:23:00,60.3,29.5,27.90,SSE,158,0.0,0.0,31,0.00,,---,0.00,VWS V14.01,2013-02-24 21:23:00,
2013-02-24 16:28:00,60.3,29.5,27.90,SSE,158,0.0,0.0,31,0.00,,---,0.00,VWS V14.01,2013-02-24 21:28:00,
2013-02-24 16:33:00,60.3,29.5,27.90,SSE,158,0.0,0.0,31,0.00,,---,0.00,VWS V14.01,2013-02-24 21:33:00,
2013-02-24 16:38:00,60.3,29.5,27.90,SSE,158,0.0,0.0,31,0.00,,---,0.00,VWS V14.01,2013-02-24 21:38:00,
2013-02-24 16:43:00,58.5,28.7,27.90,SSE,158,0.0,0.0,32,0.00,,---,0.00,VWS V14.01,2013-02-24 21:43:00,
2013-02-24 16:48:00,58.8,29.0,27.90,SSE,158,0.0,0.0,32,0.00,,---,0.00,VWS V14.01,2013-02-24 21:48:00,
2013-02-24 16:53:00,58.6,28.9,27.90,SSE,158,0.0,0.0,32,0.00,,---,0.00,VWS V14.01,2013-02-24 21:53:00,
2013-02-24 16:58:00,58.6,28.9,27.90,SSE,158,0.0,0.0,32,0.00,,---,0.00,VWS V14.01,2013-02-24 21:58:00,
2013-02-24 17:03:00,58.3,29.3,27.90,SSE,158,0.0,0.0,33,0.00,,---,0.00,VWS V14.01,2013-02-24 22:03:00,
2013-02-24 17:08:00,57.9,29.0,27.90,SSE,158,0.0,0.0,33,0.00,,---,0.00,VWS V14.01,2013-02-24 22:08:00,
2013-02-24 17:14:00,57.9,29.0,27.90,SSE,158,0.0,0.0,33,0.00,,---,0.00,VWS V14.01,2013-02-24 22:14:00,
2013-02-24 17:19:00,57.4,28.5,27.90,SSE,158,0.0,0.0,33,0.00,,---,0.00,VWS V14.01,2013-02-24 22:19:00,
2013-02-24 17:24:00,56.8,28.1,27.90,SSE,158,0.0,0.0,33,0.00,,---,0.00,VWS V14.01,2013-02-24 22:24:00,
2013-02-24 17:29:00,56.3,28.3,27.90,SSE,158,0.0,0.0,34,0.00,,---,0.00,VWS V14.01,2013-02-24 22:29:00,
2013-02-24 17:34:00,56.1,28.1,27.90,SSE,158,0.0,0.0,34,0.00,,---,0.00,VWS V14.01,2013-02-24 22:34:00,
2013-02-24 17:39:00,55.0,27.2,27.90,SSE,158,0.0,0.0,34,0.00,,---,0.00,VWS V14.01,2013-02-24 22:39:00,
2013-02-24 17:44:00,54.7,27.6,27.90,SSE,158,0.0,0.0,35,0.00,,---,0.00,VWS V14.01,2013-02-24 22:44:00,
2013-02-24 17:49:00,54.1,27.1,27.90,SSE,158,0.0,0.0,35,0.00,,---,0.00,VWS V14.01,2013-02-24 22:49:00,
2013-02-24 17:54:00,53.4,27.1,27.90,SSE,158,0.0,0.0,36,0.00,,---,0.00,VWS V14.01,2013-02-24 22:54:00,
2013-02-24 17:59:00,53.2,27.0,27.90,SSE,158,0.0,0.0,36,0.00,,---,0.00,VWS V14.01,2013-02-24 22:59:00,
2013-02-24 18:04:00,53.1,26.8,27.90,SSE,158,0.0,0.0,36,0.00,,---,0.00,VWS V14.01,2013-02-24 23:04:00,
2013-02-24 18:09:00,52.7,26.5,27.90,SSE,158,0.0,0.0,36,0.00,,---,0.00,VWS V14.01,2013-02-24 23:09:00,
2013-02-24 18:14:00,52.2,26.0,27.90,SSE,158,0.0,0.0,36,0.00,,---,0.00,VWS V14.01,2013-02-24 23:14:00,
2013-02-24 18:19:00,51.6,26.2,27.93,SSE,158,0.0,0.0,37,0.00,,---,0.00,VWS V14.01,2013-02-24 23:19:00,
2013-02-24 18:24:00,50.9,25.6,27.93,SSE,158,0.0,0.0,37,0.00,,---,0.00,VWS V14.01,2013-02-24 23:24:00,
2013-02-24 18:29:00,50.2,24.9,27.93,SSE,158,0.0,0.0,37,0.00,,---,0.00,VWS V14.01,2013-02-24 23:29:00,
2013-02-24 18:34:00,49.6,24.5,27.93,SSE,158,0.0,0.0,37,0.00,,---,0.00,VWS V14.01,2013-02-24 23:34:00,
2013-02-24 18:39:00,48.9,24.5,27.93,SSE,158,0.0,0.0,38,0.00,,---,0.00,VWS V14.01,2013-02-24 23:39:00,
2013-02-24 18:44:00,48.4,24.0,27.93,SSE,158,0.0,0.0,38,0.00,,---,0.00,VWS V14.01,2013-02-24 23:44:00,
2013-02-24 18:49:00,47.8,23.5,27.93,SSE,158,0.0,0.0,38,0.00,,---,0.00,VWS V14.01,2013-02-24 23:49:00,
2013-02-24 18:55:00,47.5,23.2,27.93,SSE,158,0.0,0.0,38,0.00,,---,0.00,VWS V14.01,2013-02-24 23:55:00,
2013-02-24 19:00:00,47.3,23.0,27.93,SSE,158,0.0,0.0,38,0.00,,---,0.00,VWS V14.01,2013-02-25 00:00:00,
2013-02-24 19:05:00,47.1,23.5,27.93,SSE,158,0.0,0.0,39,0.00,,---,0.00,VWS V14.01,2013-02-25 00:05:00,
2013-02-24 19:10:00,46.8,23.1,27.93,SSE,158,0.0,0.0,39,0.00,,---,0.00,VWS V14.01,2013-02-25 00:10:00,
2013-02-24 19:15:00,46.4,22.8,27.93,SSE,158,0.0,0.0,39,0.00,,---,0.00,VWS V14.01,2013-02-25 00:15:00,
2013-02-24 19:20:00,46.0,23.1,27.93,SSE,158,0.0,0.0,40,0.00,,---,0.00,VWS V14.01,2013-02-25 00:20:00,
2013-02-24 19:25:00,45.9,22.9,27.93,SSE,158,0.0,0.0,40,0.00,,---,0.00,VWS V14.01,2013-02-25 00:25:00,
2013-02-24 19:30:00,45.7,22.8,27.93,SSE,158,0.0,0.0,40,0.00,,---,0.00,VWS V14.01,2013-02-25 00:30:00,
2013-02-24 19:35:00,45.7,22.8,27.90,SSE,158,0.0,0.0,40,0.00,,---,0.00,VWS V14.01,2013-02-25 00:35:00,
2013-02-24 19:40:00,45.5,22.6,27.90,SSE,158,0.0,0.0,40,0.00,,---,0.00,VWS V14.01,2013-02-25 00:40:00,
2013-02-24 19:45:00,45.3,23.0,27.90,SSE,158,0.0,0.0,41,0.00,,---,0.00,VWS V14.01,2013-02-25 00:45:00,
2013-02-24 19:50:00,45.3,23.0,27.90,SSE,158,0.0,0.0,41,0.00,,---,0.00,VWS V14.01,2013-02-25 00:50:00,
2013-02-24 19:55:00,45.1,22.9,27.90,SSE,158,0.0,0.0,41,0.00,,---,0.00,VWS V14.01,2013-02-25 00:55:00,
2013-02-24 20:00:00,45.0,22.7,27.90,SSE,158,0.0,0.0,41,0.00,,---,0.00,VWS V14.01,2013-02-25 01:00:00,
2013-02-24 20:06:00,44.8,22.5,27.90,SSE,158,0.0,0.0,41,0.00,,---,0.00,VWS V14.01,2013-02-25 01:06:00,
2013-02-24 20:11:00,44.8,22.5,27.90,SSE,158,0.0,0.0,41,0.00,,---,0.00,VWS V14.01,2013-02-25 01:11:00,
2013-02-24 20:16:00,44.8,23.1,27.90,SSE,158,0.0,0.0,42,0.00,,---,0.00,VWS V14.01,2013-02-25 01:16:00,
2013-02-24 20:21:00,44.8,23.1,27.90,SSE,158,0.0,0.0,42,0.00,,---,0.00,VWS V14.01,2013-02-25 01:21:00,
2013-02-24 20:26:00,44.6,23.5,27.90,SSE,158,0.0,0.0,43,0.00,,---,0.00,VWS V14.01,2013-02-25 01:26:00,
2013-02-24 20:31:00,44.6,24.0,27.90,SSE,158,0.0,0.0,44,0.00,,---,0.00,VWS V14.01,2013-02-25 01:31:00,
2013-02-24 20:36:00,44.4,23.9,27.90,SSE,158,0.0,0.0,44,0.00,,---,0.00,VWS V14.01,2013-02-25 01:36:00,
2013-02-24 20:41:00,44.2,23.7,27.90,SSE,158,0.0,0.0,44,0.00,,---,0.00,VWS V14.01,2013-02-25 01:41:00,
2013-02-24 20:46:00,44.1,23.0,27.90,SSE,158,0.0,0.0,43,0.00,,---,0.00,VWS V14.01,2013-02-25 01:46:00,
2013-02-24 20:51:00,44.1,23.0,27.90,SSE,158,0.0,0.0,43,0.00,,---,0.00,VWS V14.01,2013-02-25 01:51:00,
2013-02-24 20:56:00,44.1,22.5,27.90,SSE,158,0.0,0.0,42,0.00,,---,0.00,VWS V14.01,2013-02-25 01:56:00,
2013-02-24 21:01:00,43.7,22.1,27.90,SSE,158,0.0,0.0,42,0.00,,---,0.00,VWS V14.01,2013-02-25 02:01:00,
2013-02-24 21:06:00,43.5,22.0,27.90,SSE,158,0.0,0.0,42,0.00,,---,0.00,VWS V14.01,2013-02-25 02:06:00,
2013-02-24 21:12:00,43.5,22.0,27.90,SSE,158,0.0,0.0,42,0.00,,---,0.00,VWS V14.01,2013-02-25 02:12:00,
2013-02-24 21:17:00,43.3,21.8,27.90,SSE,158,0.0,0.0,42,0.00,,---,0.00,VWS V14.01,2013-02-25 02:17:00,
2013-02-24 21:22:00,43.3,21.8,27.90,SSE,158,0.0,0.0,42,0.00,,---,0.00,VWS V14.01,2013-02-25 02:22:00,
2013-02-24 21:27:00,43.0,21.5,27.90,SSE,158,0.0,0.0,42,0.00,,---,0.00,VWS V14.01,2013-02-25 02:27:00,
2013-02-24 21:32:00,43.0,21.5,27.90,SSE,158,0.0,0.0,42,0.00,,---,0.00,VWS V14.01,2013-02-25 02:32:00,
2013-02-24 21:37:00,43.0,21.5,27.90,SSE,158,0.0,0.0,42,0.00,,---,0.00,VWS V14.01,2013-02-25 02:37:00,
2013-02-24 21:42:00,42.8,21.9,27.90,SSE,158,0.0,0.0,43,0.00,,---,0.00,VWS V14.01,2013-02-25 02:42:00,
2013-02-24 21:47:00,42.4,21.5,27.93,SSE,158,0.0,0.0,43,0.00,,---,0.00,VWS V14.01,2013-02-25 02:47:00,
2013-02-24 21:52:00,42.4,21.5,27.93,SSE,158,0.0,0.0,43,0.00,,---,0.00,VWS V14.01,2013-02-25 02:52:00,
2013-02-24 21:57:00,42.4,21.5,27.93,SSE,158,0.0,0.0,43,0.00,,---,0.00,VWS V14.01,2013-02-25 02:57:00,
2013-02-24 22:02:00,42.3,21.4,27.90,SSE,158,0.0,0.0,43,0.00,,---,0.00,VWS V14.01,2013-02-25 03:02:00,
2013-02-24 22:07:00,42.4,21.5,27.90,SSE,158,0.0,0.0,43,0.00,,---,0.00,VWS V14.01,2013-02-25 03:07:00,
2013-02-24 22:13:00,42.4,21.5,27.90,SSE,158,0.0,0.0,43,0.00,,---,0.00,VWS V14.01,2013-02-25 03:13:00,
2013-02-24 22:18:00,42.4,21.5,27.90,SSE,158,0.0,0.0,43,0.00,,---,0.00,VWS V14.01,2013-02-25 03:18:00,
2013-02-24 22:23:00,42.3,20.3,27.90,SSE,158,0.0,0.0,41,0.00,,---,0.00,VWS V14.01,2013-02-25 03:23:00,
2013-02-24 22:28:00,42.3,20.3,27.90,SSE,158,0.0,0.0,41,0.00,,---,0.00,VWS V14.01,2013-02-25 03:28:00,
2013-02-24 22:33:00,42.3,20.3,27.90,SSE,158,0.0,0.0,41,0.00,,---,0.00,VWS V14.01,2013-02-25 03:33:00,
2013-02-24 22:38:00,42.3,20.3,27.90,SSE,158,0.0,0.0,41,0.00,,---,0.00,VWS V14.01,2013-02-25 03:38:00,
2013-02-24 22:43:00,42.3,20.3,27.90,SSE,158,0.0,0.0,41,0.00,,---,0.00,VWS V14.01,2013-02-25 03:43:00,
2013-02-24 22:48:00,42.1,19.5,27.90,SSE,158,0.0,0.0,40,0.00,,---,0.00,VWS V14.01,2013-02-25 03:48:00,
2013-02-24 22:53:00,41.7,19.8,27.90,SSE,158,0.0,0.0,41,0.00,,---,0.00,VWS V14.01,2013-02-25 03:53:00,
2013-02-24 22:58:00,41.7,19.2,27.90,SSE,158,0.0,0.0,40,0.00,,---,0.00,VWS V14.01,2013-02-25 03:58:00,
2013-02-24 23:03:00,41.7,19.2,27.90,SSE,158,0.0,0.0,40,0.00,,---,0.00,VWS V14.01,2013-02-25 04:03:00,
2013-02-24 23:08:00,41.7,19.2,27.90,SSE,158,0.0,0.0,40,0.00,,---,0.00,VWS V14.01,2013-02-25 04:08:00,
2013-02-24 23:13:00,41.7,19.2,27.90,SSE,158,0.0,0.0,40,0.00,,---,0.00,VWS V14.01,2013-02-25 04:13:00,
2013-02-24 23:19:00,41.2,19.3,27.90,SSE,158,0.0,0.0,41,0.00,,---,0.00,VWS V14.01,2013-02-25 04:19:00,
2013-02-24 23:24:00,41.0,19.1,27.90,SSE,158,0.0,0.0,41,0.00,,---,0.00,VWS V14.01,2013-02-25 04:24:00,
2013-02-24 23:29:00,41.0,19.1,27.90,SSE,158,0.0,0.0,41,0.00,,---,0.00,VWS V14.01,2013-02-25 04:29:00,
2013-02-24 23:34:00,41.0,19.1,27.90,SSE,158,0.0,0.0,41,0.00,,---,0.00,VWS V14.01,2013-02-25 04:34:00,
2013-02-24 23:39:00,41.0,19.1,27.90,SSE,158,0.0,0.0,41,0.00,,---,0.00,VWS V14.01,2013-02-25 04:39:00,
2013-02-24 23:44:00,41.0,19.1,27.90,SSE,158,0.0,0.0,41,0.00,,---,0.00,VWS V14.01,2013-02-25 04:44:00,
2013-02-24 23:49:00,40.8,19.0,27.90,SSE,158,0.0,0.0,41,0.00,,---,0.00,VWS V14.01,2013-02-25 04:49:00,
2013-02-24 23:54:00,40.6,18.8,27.90,SSE,158,0.0,0.0,41,0.00,,---,0.00,VWS V14.01,2013-02-25 04:54:00,
2013-02-24 23:59:00,40.6,18.8,27.90,SSE,158,0.0,0.0,41,0.00,,---,0.00,VWS V14.01,2013-02-25 04:59:00,